Aviation Digital Data Service (ADDS)

Output produced by METARs form (1033 UTC 07 December 2016)
found at http://www.aviationweather.gov/adds/metars/
 
KBOS 070916Z 0709/0812 09014KT P6SM -RA BKN023 OVC030 
     FM071100 06005KT P6SM -RA OVC015 
     FM071300 06004KT P6SM VCSH OVC015 
     FM071400 VRB03KT P6SM OVC015 
     FM072200 23004KT P6SM BKN020 
     FM080100 24006KT P6SM BKN140